createdAt,value
2018-06-18T00:09:39.002Z,2.40
2018-06-18T00:30:20.078Z,2.67
2018-06-18T00:50:57.501Z,2.17
2018-06-18T01:11:35.534Z,2.30
2018-06-18T01:32:14.805Z,2.37
2018-06-18T01:52:52.228Z,2.77
2018-06-18T02:13:29.922Z,2.33
2018-06-18T02:34:15.981Z,2.80
2018-06-18T02:54:55.393Z,2.20
2018-06-18T03:15:30.627Z,2.43
2018-06-18T03:36:04.564Z,2.43
2018-06-18T03:56:36.766Z,2.90
2018-06-18T04:17:08.047Z,2.33
2018-06-18T04:37:46.386Z,2.47
2018-06-18T04:58:30.568Z,2.50
2018-06-18T05:19:00.620Z,2.63
2018-06-18T05:39:38.964Z,2.37
2018-06-18T06:00:16.388Z,2.90
2018-06-18T06:21:03.641Z,2.93
2018-06-18T06:41:36.763Z,2.60
2018-06-18T07:02:04.970Z,2.70
2018-06-18T07:22:46.656Z,2.67
2018-06-18T07:43:28.726Z,2.43
2018-06-18T08:04:04.685Z,2.50
2018-06-18T08:24:45.345Z,2.60
2018-06-18T08:45:23.449Z,2.00
2018-06-18T09:06:05.790Z,2.03
2018-06-18T09:26:42.905Z,2.00
2018-06-18T09:47:19.100Z,2.40
2018-06-18T10:08:01.436Z,2.97
2018-06-18T10:28:39.780Z,2.10
2018-06-18T10:49:19.969Z,1.80
2018-06-18T11:10:03.227Z,1.90
2018-06-18T11:30:35.427Z,1.83
2018-06-18T11:51:14.699Z,1.80
2018-06-18T12:11:51.197Z,1.63
2018-06-18T12:32:23.093Z,2.30
2018-06-18T12:53:04.772Z,1.90
2018-06-18T13:13:44.699Z,1.90
2018-06-18T13:34:23.041Z,2.07
2018-06-18T13:55:08.606Z,1.93
2018-06-18T14:15:48.645Z,2.00
2018-06-18T14:58:01.568Z,2.00
2018-06-18T15:18:44.809Z,1.60
2018-06-18T15:39:25.299Z,2.33
2018-06-18T15:59:58.772Z,2.67
2018-06-18T16:20:35.539Z,1.90
2018-06-18T16:41:16.037Z,2.07
2018-06-18T17:01:49.159Z,2.50
2018-06-18T17:22:18.289Z,2.23
2018-06-18T17:42:56.628Z,2.20
2018-06-18T18:03:35.894Z,2.20
2018-06-18T18:24:13.592Z,2.93
2018-06-18T18:44:50.434Z,2.70
2018-06-18T19:05:29.702Z,2.70
2018-06-18T19:26:08.971Z,3.27
2018-06-18T19:47:00.532Z,4.40
2018-06-18T20:07:38.904Z,3.73
2018-06-18T20:28:16.261Z,3.20
2018-06-18T20:48:57.447Z,3.03
2018-06-18T21:09:34.516Z,3.63
2018-06-18T21:30:18.389Z,3.60
2018-06-18T21:50:49.057Z,3.60
2018-06-18T22:11:29.242Z,3.73
2018-06-18T22:32:01.443Z,3.20
2018-06-18T22:52:43.475Z,4.00
2018-06-18T23:13:27.965Z,3.20
2018-06-18T23:33:58.595Z,4.10
2018-06-18T23:54:34.207Z,3.93
